This is the latest recevied weather packets stored in our database for station/object OE-11331. If no packets are shown the sender has not sent any weather packets the latest 10 day(s).
| Time | Temp. | Humidity | Pressure | Rain* | Wind** | Luminosity | Snow |
|---|---|---|---|---|---|---|---|
| 1787860534 | 23.33° C | 74% | 1015.5 hPa | 0 mm | - | 0 W/m² | - |
| 1787859708 | 23.33° C | 73% | 1015.5 hPa | 0 mm | - | 0 W/m² | - |
| 1787859334 | 23.89° C | 72% | 1015.4 hPa | 0 mm | - | 0 W/m² | - |
| 1787858734 | 24.44° C | 71% | 1015.2 hPa | 0 mm | - | 0 W/m² | - |
| 1787857907 | 24.44° C | 72% | 1015.1 hPa | 0 mm | - | 0 W/m² | - |
| 1787857534 | 24.44° C | 70% | 1015 hPa | 0 mm | - | 0 W/m² | - |
| 1787856934 | 25° C | 67% | 1014.9 hPa | 0 mm | - | 0 W/m² | - |
| 1787856107 | 25.56° C | 63% | 1014.6 hPa | 0 mm | - | 0 W/m² | - |
| 1787855733 | 26.11° C | 63% | 1014.4 hPa | 0 mm | - | 0 W/m² | - |
| 1787855134 | 26.11° C | 63% | 1014.3 hPa | 0 mm | - | 0 W/m² | - |
| 1787854307 | 26.67° C | 63% | 1014.1 hPa | 0 mm | - | 0 W/m² | - |
| 1787853934 | 26.67° C | 63% | 1013.9 hPa | 0 mm | - | 11 W/m² | - |
| 1787852746 | 27.78° C | 59% | 1013.7 hPa | 0 mm | - | 22 W/m² | - |
| 1787852133 | 27.78° C | 60% | 1013.5 hPa | 0 mm | - | 32 W/m² | - |
| 1787851534 | 28.33° C | 56% | 1013.4 hPa | 0 mm | - | 43 W/m² | - |
| 1787850707 | 28.89° C | 51% | 1013.3 hPa | 0 mm | - | 54 W/m² | - |
| 1787850334 | 28.89° C | 52% | 1013.3 hPa | 0 mm | - | 76 W/m² | - |
| 1787849734 | 28.33° C | 54% | 1013.3 hPa | 0 mm | - | 76 W/m² | - |
| 1787848907 | 28.89° C | 54% | 1013.2 hPa | 0 mm | - | 87 W/m² | - |
| 1787848534 | 28.89° C | 54% | 1013.3 hPa | 0 mm | - | 97 W/m² | - |
| 1787847934 | 28.89° C | 52% | 1013.1 hPa | 0 mm | - | 130 W/m² | - |
| 1787847107 | 29.44° C | 52% | 1013.1 hPa | 0 mm | - | 141 W/m² | - |
| 1787846734 | 29.44° C | 54% | 1013.1 hPa | 0 mm | - | 152 W/m² | - |
| 1787846134 | 29.44° C | 52% | 1013 hPa | 0 mm | - | 173 W/m² | - |
| 1787845306 | 30° C | 49% | 1012.9 hPa | 0 mm | - | 184 W/m² | - |
* Rain latest hour (hover to see other rain measurements)
** Current wind speed in m/s (hover to see current wind gust speed)